createdAt,value
2019-04-04T00:01:03.475Z,6.86
2019-04-04T00:03:10.922Z,6.88
2019-04-04T00:05:18.376Z,6.86
2019-04-04T00:07:27.084Z,6.87
2019-04-04T00:09:34.944Z,6.89
2019-04-04T00:11:42.442Z,6.76
2019-04-04T00:13:49.929Z,6.78
2019-04-04T00:15:57.309Z,6.69
2019-04-04T00:18:04.795Z,6.72
2019-04-04T00:20:12.505Z,6.70
2019-04-04T00:22:19.882Z,6.66
2019-04-04T00:24:27.378Z,6.55
2019-04-04T00:26:34.809Z,6.66
2019-04-04T00:28:42.216Z,6.65
2019-04-04T00:30:49.788Z,6.63
2019-04-04T00:32:57.267Z,6.49
2019-04-04T00:35:04.743Z,6.47
2019-04-04T00:37:12.023Z,6.57
2019-04-04T00:39:19.294Z,6.52
2019-04-04T00:41:26.573Z,6.51
2019-04-04T00:43:33.789Z,6.38
2019-04-04T00:45:41.023Z,6.35
2019-04-04T00:47:48.253Z,6.43
2019-04-04T00:49:55.584Z,6.33
2019-04-04T00:52:02.770Z,6.35
2019-04-04T00:54:10.007Z,6.35
2019-04-04T00:56:18.063Z,6.29
2019-04-04T00:58:25.925Z,6.29
2019-04-04T01:00:33.342Z,6.15
2019-04-04T01:02:40.519Z,6.12
2019-04-04T01:04:47.818Z,6.15
2019-04-04T01:06:55.116Z,6.17
2019-04-04T01:09:02.438Z,6.16
2019-04-04T01:11:09.617Z,6.16
2019-04-04T01:13:16.842Z,6.17
2019-04-04T01:15:24.347Z,6.14
2019-04-04T01:17:33.031Z,6.14
2019-04-04T01:19:40.834Z,6.06
2019-04-04T01:21:48.174Z,6.03
2019-04-04T01:23:58.023Z,6.02
2019-04-04T01:26:04.647Z,5.94
2019-04-04T01:28:12.105Z,6.00
2019-04-04T01:30:19.818Z,6.03
2019-04-04T01:32:27.181Z,5.93
2019-04-04T01:34:34.554Z,5.89
2019-04-04T01:36:41.752Z,5.91
2019-04-04T01:38:49.083Z,5.85
2019-04-04T01:40:56.441Z,5.85
2019-04-04T01:43:03.738Z,5.81
2019-04-04T01:45:13.222Z,5.78
2019-04-04T01:47:20.583Z,5.75
2019-04-04T01:49:27.924Z,5.73
2019-04-04T01:51:35.317Z,5.70
2019-04-04T01:53:43.021Z,5.65
2019-04-04T01:55:50.381Z,5.65
2019-04-04T01:57:58.162Z,5.65
2019-04-04T02:00:07.369Z,5.56
2019-04-04T02:02:17.679Z,5.61
2019-04-04T02:04:24.844Z,5.59
2019-04-04T02:06:32.871Z,5.55
2019-04-04T02:08:40.295Z,5.55
2019-04-04T02:10:47.668Z,5.53
2019-04-04T02:12:55.013Z,5.49
2019-04-04T02:15:02.457Z,5.49
2019-04-04T02:17:09.825Z,5.47
2019-04-04T02:19:17.185Z,5.43
2019-04-04T02:21:24.550Z,5.42
2019-04-04T02:23:32.187Z,5.34
2019-04-04T02:25:39.689Z,5.31
2019-04-04T02:27:47.063Z,5.28
2019-04-04T02:29:54.437Z,5.31
2019-04-04T02:32:04.226Z,5.28
2019-04-04T02:34:11.566Z,5.25
2019-04-04T02:36:18.927Z,5.22
2019-04-04T02:38:28.164Z,5.25
2019-04-04T02:40:35.400Z,5.23
2019-04-04T02:42:43.676Z,5.22
2019-04-04T02:44:51.067Z,5.25
2019-04-04T02:46:58.489Z,5.16
2019-04-04T02:49:05.947Z,5.09
2019-04-04T02:51:13.373Z,5.07
2019-04-04T02:53:20.747Z,5.02
2019-04-04T02:55:30.966Z,5.04
2019-04-04T02:57:41.053Z,5.07
2019-04-04T02:59:46.664Z,5.07
2019-04-04T03:01:54.245Z,4.93
2019-04-04T03:04:01.931Z,4.94
2019-04-04T03:06:09.403Z,4.94
2019-04-04T03:08:16.872Z,4.91
2019-04-04T03:10:24.470Z,4.86
2019-04-04T03:12:31.846Z,4.79
2019-04-04T03:14:39.238Z,4.81
2019-04-04T03:16:46.875Z,4.79
2019-04-04T03:18:54.291Z,4.71
2019-04-04T03:21:01.684Z,4.70
2019-04-04T03:23:09.282Z,4.69
2019-04-04T03:25:16.732Z,4.69
2019-04-04T03:27:26.860Z,4.63
2019-04-04T03:29:37.384Z,4.62
2019-04-04T03:31:42.533Z,4.57
2019-04-04T03:33:50.017Z,4.53
2019-04-04T03:36:00.126Z,4.54
2019-04-04T03:38:06.558Z,4.49
2019-04-04T03:40:14.051Z,4.51
2019-04-04T03:42:21.419Z,4.50
2019-04-04T03:44:28.807Z,4.49
2019-04-04T03:46:38.745Z,4.41
2019-04-04T03:48:49.837Z,4.44
2019-04-04T03:50:56.984Z,4.47
2019-04-04T03:53:03.609Z,4.35
2019-04-04T03:55:11.216Z,4.32
2019-04-04T03:57:18.790Z,4.40
2019-04-04T03:59:26.160Z,4.43
2019-04-04T04:01:33.589Z,4.43
2019-04-04T04:03:40.986Z,4.41
2019-04-04T04:05:48.351Z,4.32
2019-04-04T04:07:55.784Z,4.27
2019-04-04T04:10:03.289Z,4.33
2019-04-04T04:12:11.481Z,4.39
2019-04-04T04:14:21.673Z,4.31
2019-04-04T04:16:28.198Z,4.26
2019-04-04T04:18:35.668Z,4.25
2019-04-04T04:20:43.051Z,4.28
2019-04-04T04:22:51.534Z,4.29
2019-04-04T04:25:02.147Z,4.29
2019-04-04T04:27:08.240Z,4.24
2019-04-04T04:29:15.697Z,4.24
2019-04-04T04:31:23.087Z,4.23
2019-04-04T04:33:30.498Z,4.22
2019-04-04T04:35:41.281Z,4.27
2019-04-04T04:37:47.058Z,4.26
2019-04-04T04:39:54.456Z,4.29
2019-04-04T04:42:02.012Z,4.26
2019-04-04T04:44:09.552Z,4.28
2019-04-04T04:46:17.942Z,4.31
2019-04-04T04:48:26.001Z,4.37
2019-04-04T04:50:33.755Z,4.39
2019-04-04T04:52:41.294Z,4.39
2019-04-04T04:54:48.746Z,4.44
2019-04-04T04:56:56.275Z,4.43
2019-04-04T04:59:03.664Z,4.46
2019-04-04T05:01:11.059Z,4.44
2019-04-04T05:03:18.474Z,4.51
2019-04-04T05:05:26.001Z,4.56
2019-04-04T05:07:33.472Z,4.55
2019-04-04T05:09:40.933Z,4.61
2019-04-04T05:11:50.228Z,4.64
2019-04-04T05:13:58.838Z,4.67
2019-04-04T05:16:08.840Z,4.73
2019-04-04T05:18:16.304Z,4.76
2019-04-04T05:20:25.566Z,4.82
2019-04-04T05:22:33.608Z,4.84
2019-04-04T05:24:40.997Z,4.94
2019-04-04T05:26:48.387Z,4.94
2019-04-04T05:28:57.093Z,4.99
2019-04-04T05:31:04.641Z,5.08
2019-04-04T05:33:12.024Z,5.15
2019-04-04T05:35:19.438Z,5.20
2019-04-04T05:37:27.603Z,5.23
2019-04-04T05:39:35.215Z,5.30
2019-04-04T05:41:42.604Z,5.31
2019-04-04T05:43:49.999Z,5.42
2019-04-04T05:45:57.432Z,5.41
2019-04-04T05:48:04.850Z,5.49
2019-04-04T05:50:12.483Z,5.53
2019-04-04T05:52:19.879Z,5.56
2019-04-04T05:54:27.380Z,5.58
2019-04-04T05:56:34.786Z,5.68
2019-04-04T05:58:44.280Z,5.74
2019-04-04T06:00:51.756Z,5.77
2019-04-04T06:02:59.174Z,5.89
2019-04-04T06:05:07.200Z,5.96
2019-04-04T06:07:16.368Z,5.96
2019-04-04T06:09:23.673Z,6.01
2019-04-04T06:11:31.113Z,6.09
2019-04-04T06:13:38.530Z,6.16
2019-04-04T06:15:45.946Z,6.18
2019-04-04T06:17:53.504Z,6.16
2019-04-04T06:20:03.891Z,6.27
2019-04-04T06:22:11.327Z,6.36
2019-04-04T06:24:18.784Z,6.34
2019-04-04T06:26:26.122Z,6.52
2019-04-04T06:28:33.516Z,6.57
2019-04-04T06:30:43.327Z,6.58
2019-04-04T06:32:50.209Z,6.65
2019-04-04T06:34:57.596Z,6.58
2019-04-04T06:37:05.088Z,6.69
2019-04-04T06:39:12.529Z,6.89
2019-04-04T06:41:19.926Z,6.89
2019-04-04T06:43:27.327Z,7.09
2019-04-04T06:45:36.008Z,7.20
2019-04-04T06:47:43.424Z,7.11
2019-04-04T06:49:50.815Z,7.09
2019-04-04T06:51:58.254Z,7.17
2019-04-04T06:54:05.884Z,7.21
2019-04-04T06:56:13.202Z,7.33
2019-04-04T06:58:20.559Z,7.62
2019-04-04T07:00:27.917Z,7.69
2019-04-04T07:02:35.259Z,7.76
2019-04-04T07:04:42.681Z,7.78
2019-04-04T07:06:50.034Z,7.60
2019-04-04T07:08:57.464Z,7.83
2019-04-04T07:11:15.491Z,7.99
2019-04-04T07:13:21.571Z,8.17
2019-04-04T07:15:23.139Z,8.18
2019-04-04T07:17:30.516Z,8.33
2019-04-04T07:19:37.969Z,8.32
2019-04-04T07:21:45.338Z,8.18
2019-04-04T07:23:52.737Z,8.32
2019-04-04T07:26:00.117Z,8.53
2019-04-04T07:28:07.729Z,8.47
2019-04-04T07:30:15.578Z,8.44
2019-04-04T07:32:23.096Z,8.73
2019-04-04T07:34:30.642Z,8.68
2019-04-04T07:36:38.074Z,8.91
2019-04-04T07:38:46.362Z,8.85
2019-04-04T07:40:53.761Z,9.17
2019-04-04T07:43:01.229Z,9.41
2019-04-04T07:45:10.042Z,9.29
2019-04-04T07:47:17.491Z,9.15
2019-04-04T07:49:24.935Z,9.40
2019-04-04T07:51:32.324Z,9.32
2019-04-04T07:53:39.793Z,9.44
2019-04-04T07:55:47.459Z,9.51
2019-04-04T07:57:54.845Z,9.87
2019-04-04T08:00:02.365Z,10.18
2019-04-04T08:02:10.183Z,10.32
2019-04-04T08:04:17.678Z,10.23
2019-04-04T08:06:25.162Z,10.04
2019-04-04T08:08:32.708Z,10.16
2019-04-04T08:10:43.904Z,10.44
2019-04-04T08:12:53.850Z,10.42
2019-04-04T08:15:01.315Z,10.58
2019-04-04T08:17:08.829Z,10.64
2019-04-04T08:19:16.287Z,10.80
2019-04-04T08:21:23.923Z,10.93
2019-04-04T08:23:34.124Z,10.73
2019-04-04T08:25:43.589Z,10.73
2019-04-04T08:27:51.532Z,10.80
2019-04-04T08:30:02.481Z,10.86
2019-04-04T08:32:09.916Z,10.91
2019-04-04T08:34:18.721Z,11.01
2019-04-04T08:36:26.249Z,10.73
2019-04-04T08:38:33.651Z,10.76
2019-04-04T08:40:41.069Z,10.74
2019-04-04T08:42:48.514Z,10.90
2019-04-04T08:44:55.917Z,11.06
2019-04-04T08:47:03.315Z,10.91
2019-04-04T08:49:10.737Z,10.92
2019-04-04T08:51:18.137Z,11.03
2019-04-04T08:53:25.633Z,10.94
2019-04-04T08:55:33.017Z,10.99
2019-04-04T08:57:40.429Z,10.91
2019-04-04T08:59:47.958Z,11.02
2019-04-04T09:01:55.352Z,11.22
2019-04-04T09:04:02.892Z,11.38
2019-04-04T09:06:10.402Z,11.29
2019-04-04T09:08:17.889Z,11.56
2019-04-04T09:10:25.312Z,12.04
2019-04-04T09:12:33.055Z,12.17
2019-04-04T09:14:41.186Z,12.16
2019-04-04T09:16:49.128Z,12.28
2019-04-04T09:18:56.613Z,12.19
2019-04-04T09:21:04.094Z,12.28
2019-04-04T09:23:11.518Z,12.25
2019-04-04T09:25:19.075Z,12.29
2019-04-04T09:27:26.475Z,12.18
2019-04-04T09:29:33.887Z,12.28
2019-04-04T09:31:41.353Z,12.44
2019-04-04T09:33:48.818Z,12.49
2019-04-04T09:35:56.228Z,12.95
2019-04-04T09:38:03.785Z,12.93
2019-04-04T09:40:11.700Z,13.09
2019-04-04T09:42:19.035Z,13.18
2019-04-04T09:44:26.499Z,13.45
2019-04-04T09:46:33.929Z,13.25
2019-04-04T09:48:41.327Z,13.28
2019-04-04T09:50:48.658Z,13.30
2019-04-04T09:52:56.073Z,13.43
2019-04-04T09:55:03.513Z,13.74
2019-04-04T09:57:11.008Z,13.89
2019-04-04T09:59:18.484Z,14.03
2019-04-04T10:01:25.945Z,14.18
2019-04-04T10:03:33.423Z,13.97
2019-04-04T10:05:40.806Z,14.25
2019-04-04T10:07:48.466Z,14.93
2019-04-04T10:09:55.809Z,14.09
2019-04-04T10:12:03.200Z,14.27
2019-04-04T10:14:10.627Z,14.48
2019-04-04T10:16:18.036Z,14.41
2019-04-04T10:18:25.444Z,14.49
2019-04-04T10:20:32.876Z,14.57
2019-04-04T10:22:40.420Z,15.23
2019-04-04T10:24:47.832Z,14.89
2019-04-04T10:26:55.272Z,14.57
2019-04-04T10:29:02.673Z,14.94
2019-04-04T10:31:10.310Z,14.86
2019-04-04T10:33:17.685Z,14.68
2019-04-04T10:35:25.468Z,14.97
2019-04-04T10:37:33.001Z,15.15
2019-04-04T10:39:40.443Z,15.37
2019-04-04T10:41:47.934Z,15.71
2019-04-04T10:43:55.339Z,15.79
2019-04-04T10:46:02.820Z,15.81
2019-04-04T10:48:10.239Z,16.02
2019-04-04T10:50:18.176Z,15.91
2019-04-04T10:52:25.655Z,16.04
2019-04-04T10:54:33.022Z,16.07
2019-04-04T10:56:40.540Z,16.09
2019-04-04T10:58:47.942Z,15.99
2019-04-04T11:00:55.359Z,15.68
2019-04-04T11:03:02.767Z,15.86
2019-04-04T11:05:11.060Z,15.88
2019-04-04T11:07:18.502Z,16.08
2019-04-04T11:09:26.018Z,16.33
2019-04-04T11:11:34.208Z,16.22
2019-04-04T11:13:41.703Z,16.07
2019-04-04T11:15:49.167Z,15.18
2019-04-04T11:17:56.573Z,14.89
2019-04-04T11:20:04.200Z,14.71
2019-04-04T11:22:11.595Z,14.78
2019-04-04T11:24:19.707Z,15.22
2019-04-04T11:26:27.432Z,15.47
2019-04-04T11:28:34.807Z,15.72
2019-04-04T11:30:42.216Z,15.58
2019-04-04T11:32:49.827Z,15.62
2019-04-04T11:34:57.317Z,15.55
2019-04-04T11:37:04.773Z,15.58
2019-04-04T11:39:12.276Z,15.92
2019-04-04T11:41:20.279Z,15.53
2019-04-04T11:43:27.815Z,15.70
2019-04-04T11:45:35.228Z,15.76
2019-04-04T11:47:42.668Z,15.76
2019-04-04T11:49:50.187Z,15.89
2019-04-04T11:51:57.782Z,16.05
2019-04-04T11:54:05.319Z,16.27
2019-04-04T11:56:12.730Z,15.98
2019-04-04T11:58:20.138Z,15.88
2019-04-04T12:00:31.375Z,15.99
2019-04-04T12:02:38.801Z,16.04
2019-04-04T12:04:46.581Z,16.03
2019-04-04T12:06:54.040Z,16.42
2019-04-04T12:09:01.506Z,16.34
2019-04-04T12:11:09.151Z,15.96
2019-04-04T12:13:16.655Z,16.03
2019-04-04T12:15:24.916Z,16.16
2019-04-04T12:17:32.793Z,16.54
2019-04-04T12:19:40.266Z,16.48
2019-04-04T12:21:48.160Z,16.44
2019-04-04T12:23:55.739Z,16.72
2019-04-04T12:26:03.321Z,16.74
2019-04-04T12:28:11.366Z,16.66
2019-04-04T12:30:20.813Z,16.66
2019-04-04T12:32:28.760Z,16.71
2019-04-04T12:34:36.251Z,16.95
2019-04-04T12:36:43.931Z,17.12
2019-04-04T12:38:51.330Z,17.00
2019-04-04T12:40:58.770Z,16.94
2019-04-04T12:43:06.313Z,16.98
2019-04-04T12:45:14.041Z,17.13
2019-04-04T12:47:21.545Z,16.99
2019-04-04T12:49:29.068Z,17.13
2019-04-04T12:51:36.647Z,16.86
2019-04-04T12:53:44.119Z,17.02
2019-04-04T12:55:54.012Z,17.11
2019-04-04T12:58:00.876Z,17.02
2019-04-04T13:00:09.388Z,17.21
2019-04-04T13:02:16.925Z,17.00
2019-04-04T13:04:31.439Z,17.06
2019-04-04T13:06:33.621Z,17.01
2019-04-04T13:08:41.156Z,17.07
2019-04-04T13:10:48.736Z,17.09
2019-04-04T13:12:56.256Z,17.00
2019-04-04T13:15:04.000Z,17.41
2019-04-04T13:17:11.510Z,17.33
2019-04-04T13:19:19.403Z,17.48
2019-04-04T13:21:26.900Z,17.41
2019-04-04T13:23:34.415Z,17.61
2019-04-04T13:25:41.945Z,17.39
2019-04-04T13:27:49.501Z,17.23
2019-04-04T13:29:57.327Z,17.25
2019-04-04T13:32:04.924Z,17.36
2019-04-04T13:34:12.353Z,17.28
2019-04-04T13:36:19.779Z,17.30
2019-04-04T13:38:27.421Z,17.22
2019-04-04T13:40:44.735Z,17.33
2019-04-04T13:42:44.222Z,17.43
2019-04-04T13:44:52.860Z,17.34
2019-04-04T13:47:03.212Z,17.33
2019-04-04T13:49:10.221Z,17.10
2019-04-04T13:51:20.784Z,17.26
2019-04-04T13:53:26.790Z,17.14
2019-04-04T13:55:34.340Z,17.03
2019-04-04T13:57:41.754Z,16.95
2019-04-04T13:59:49.179Z,16.94
2019-04-04T14:01:56.780Z,17.13
2019-04-04T14:04:04.343Z,17.11
2019-04-04T14:06:11.914Z,17.01
2019-04-04T14:08:19.498Z,16.97
2019-04-04T14:10:27.263Z,17.07
2019-04-04T14:12:35.209Z,17.14
2019-04-04T14:14:42.897Z,17.17
2019-04-04T14:16:50.375Z,17.04
2019-04-04T14:18:57.873Z,16.95
2019-04-04T14:21:05.624Z,16.96
2019-04-04T14:23:13.139Z,16.94
2019-04-04T14:25:20.622Z,16.89
2019-04-04T14:27:28.216Z,16.77
2019-04-04T14:29:35.779Z,16.74
2019-04-04T14:31:43.257Z,16.69
2019-04-04T14:33:50.778Z,16.63
2019-04-04T14:35:58.283Z,16.73
2019-04-04T14:38:05.992Z,16.78
2019-04-04T14:40:15.166Z,16.74
2019-04-04T14:42:22.863Z,16.86
2019-04-04T14:44:30.789Z,16.76
2019-04-04T14:46:39.219Z,16.69
2019-04-04T14:48:47.692Z,16.71
2019-04-04T14:50:55.187Z,16.80
2019-04-04T14:53:02.618Z,16.73
2019-04-04T14:55:10.573Z,16.65
2019-04-04T14:57:18.153Z,16.56
2019-04-04T14:59:25.739Z,16.67
2019-04-04T15:01:35.037Z,16.56
2019-04-04T15:03:42.599Z,16.44
2019-04-04T15:05:50.190Z,16.50
2019-04-04T15:08:00.890Z,16.42
2019-04-04T15:10:08.113Z,16.41
2019-04-04T15:12:15.594Z,16.46
2019-04-04T15:14:23.385Z,16.41
2019-04-04T15:16:31.065Z,16.48
2019-04-04T15:18:38.691Z,16.35
2019-04-04T15:20:46.176Z,16.33
2019-04-04T15:22:53.806Z,16.21
2019-04-04T15:25:01.332Z,16.28
2019-04-04T15:27:08.848Z,16.22
2019-04-04T15:29:16.381Z,16.40
2019-04-04T15:31:23.858Z,16.17
2019-04-04T15:33:31.543Z,16.09
2019-04-04T15:35:38.938Z,16.06
2019-04-04T15:37:46.445Z,16.04
2019-04-04T15:39:54.955Z,16.01
2019-04-04T15:42:02.415Z,15.92
2019-04-04T15:44:09.876Z,15.93
2019-04-04T15:46:17.432Z,15.82
2019-04-04T15:48:24.939Z,15.80
2019-04-04T15:50:32.507Z,15.88
2019-04-04T15:52:39.985Z,15.71
2019-04-04T15:54:47.391Z,15.63
2019-04-04T15:56:54.873Z,15.63
2019-04-04T15:59:02.366Z,15.57
2019-04-04T16:01:09.911Z,15.58
2019-04-04T16:03:17.337Z,15.58
2019-04-04T16:05:24.966Z,15.52
2019-04-04T16:07:32.633Z,15.47
2019-04-04T16:09:40.202Z,15.43
2019-04-04T16:11:50.014Z,15.33
2019-04-04T16:13:57.659Z,15.41
2019-04-04T16:16:05.343Z,15.34
2019-04-04T16:18:13.220Z,15.29
2019-04-04T16:20:21.795Z,15.18
2019-04-04T16:22:29.592Z,15.10
2019-04-04T16:24:37.234Z,15.10
2019-04-04T16:26:45.093Z,15.05
2019-04-04T16:28:52.858Z,15.00
2019-04-04T16:31:00.985Z,15.06
2019-04-04T16:33:08.698Z,14.96
2019-04-04T16:35:16.475Z,14.80
2019-04-04T16:37:24.051Z,14.79
2019-04-04T16:39:35.151Z,14.74
2019-04-04T16:41:41.593Z,14.65
2019-04-04T16:43:49.633Z,14.64
2019-04-04T16:45:57.910Z,14.56
2019-04-04T16:48:05.863Z,14.53
2019-04-04T16:50:14.635Z,14.52
2019-04-04T16:52:22.261Z,14.44
2019-04-04T16:54:30.120Z,14.39
2019-04-04T16:56:37.652Z,14.40
2019-04-04T16:58:45.488Z,14.30
2019-04-04T17:00:53.546Z,14.27
2019-04-04T17:03:01.416Z,14.15
2019-04-04T17:05:10.895Z,14.13
2019-04-04T17:07:19.027Z,14.13
2019-04-04T17:09:27.358Z,14.08
2019-04-04T17:11:36.794Z,14.14
2019-04-04T17:13:47.038Z,14.07
2019-04-04T17:15:56.244Z,14.01
2019-04-04T17:18:04.959Z,13.96
2019-04-04T17:20:16.262Z,13.87
2019-04-04T17:22:25.526Z,13.75
2019-04-04T17:24:35.296Z,13.82
2019-04-04T17:26:44.215Z,13.77
2019-04-04T17:28:53.880Z,13.71
2019-04-04T17:31:02.217Z,13.74
2019-04-04T17:33:10.497Z,13.69
2019-04-04T17:35:18.886Z,13.51
2019-04-04T17:37:26.815Z,13.50
2019-04-04T17:39:34.746Z,13.39
2019-04-04T17:41:42.696Z,13.40
2019-04-04T17:43:50.611Z,13.34
2019-04-04T17:45:58.790Z,13.31
2019-04-04T17:48:06.431Z,13.20
2019-04-04T17:50:18.728Z,13.13
2019-04-04T17:52:26.791Z,13.17
2019-04-04T17:54:35.010Z,13.14
2019-04-04T17:56:43.333Z,13.13
2019-04-04T17:58:51.182Z,13.14
2019-04-04T18:01:00.806Z,13.04
2019-04-04T18:03:10.599Z,13.01
2019-04-04T18:05:19.834Z,13.01
2019-04-04T18:07:27.990Z,12.96
2019-04-04T18:09:36.135Z,12.94
2019-04-04T18:11:43.830Z,12.87
2019-04-04T18:13:51.450Z,12.85
2019-04-04T18:15:59.214Z,12.72
2019-04-04T18:18:07.079Z,12.68
2019-04-04T18:20:15.302Z,12.72
2019-04-04T18:22:23.000Z,12.70
2019-04-04T18:24:30.772Z,12.67
2019-04-04T18:26:38.428Z,12.69
2019-04-04T18:28:46.449Z,12.70
2019-04-04T18:30:54.501Z,12.61
2019-04-04T18:33:02.380Z,12.65
2019-04-04T18:35:10.770Z,12.57
2019-04-04T18:37:18.437Z,12.54
2019-04-04T18:39:26.753Z,12.53
2019-04-04T18:41:34.401Z,12.54
2019-04-04T18:43:42.692Z,12.47
2019-04-04T18:45:50.504Z,12.40
2019-04-04T18:47:58.934Z,12.44
2019-04-04T18:50:07.393Z,12.34
2019-04-04T18:52:15.364Z,12.33
2019-04-04T18:54:22.941Z,12.31
2019-04-04T18:56:31.051Z,12.25
2019-04-04T18:58:38.750Z,12.24
2019-04-04T19:00:46.248Z,12.17
2019-04-04T19:02:53.883Z,12.14
2019-04-04T19:05:01.471Z,12.02
2019-04-04T19:07:09.017Z,12.04
2019-04-04T19:09:16.986Z,12.08
2019-04-04T19:11:24.722Z,12.00
2019-04-04T19:13:43.796Z,12.03
2019-04-04T19:15:42.755Z,11.92
2019-04-04T19:17:50.686Z,11.81
2019-04-04T19:19:59.103Z,11.85
2019-04-04T19:22:06.970Z,11.77
2019-04-04T19:24:14.576Z,11.72
2019-04-04T19:26:22.626Z,11.64
2019-04-04T19:28:30.268Z,11.63
2019-04-04T19:30:38.029Z,11.53
2019-04-04T19:32:45.752Z,11.60
2019-04-04T19:34:53.571Z,11.53
2019-04-04T19:37:01.107Z,11.64
2019-04-04T19:39:15.655Z,11.57
2019-04-04T19:41:23.092Z,11.52
2019-04-04T19:43:30.747Z,11.49
2019-04-04T19:45:38.516Z,11.46
2019-04-04T19:47:46.502Z,11.43
2019-04-04T19:49:54.095Z,11.37
2019-04-04T19:52:01.644Z,11.28
2019-04-04T19:54:09.735Z,11.22
2019-04-04T19:56:17.333Z,11.26
2019-04-04T19:58:25.020Z,11.28
2019-04-04T20:00:32.766Z,11.21
2019-04-04T20:02:40.585Z,11.14
2019-04-04T20:04:48.178Z,11.14
2019-04-04T20:06:55.679Z,11.12
2019-04-04T20:09:05.077Z,11.20
2019-04-04T20:11:12.589Z,11.14
2019-04-04T20:13:30.213Z,11.07
2019-04-04T20:15:29.328Z,11.04
2019-04-04T20:17:36.753Z,11.06
2019-04-04T20:19:44.228Z,11.00
2019-04-04T20:21:51.785Z,10.99
2019-04-04T20:23:59.383Z,10.94
2019-04-04T20:26:07.220Z,10.97
2019-04-04T20:28:15.159Z,10.79
2019-04-04T20:30:39.254Z,10.83
2019-04-04T20:32:46.804Z,10.85
2019-04-04T20:34:54.352Z,10.83
2019-04-04T20:37:02.038Z,10.86
2019-04-04T20:39:10.227Z,10.78
2019-04-04T20:41:17.823Z,10.76
2019-04-04T20:43:25.323Z,10.83
2019-04-04T20:45:33.089Z,10.73
2019-04-04T20:47:40.669Z,10.68
2019-04-04T20:49:48.268Z,10.60
2019-04-04T20:51:55.992Z,10.61
2019-04-04T20:54:03.675Z,10.52
2019-04-04T20:56:11.337Z,10.57
2019-04-04T20:58:18.928Z,10.56
2019-04-04T21:00:26.559Z,10.46
2019-04-04T21:02:34.181Z,10.50
2019-04-04T21:04:41.757Z,10.45
2019-04-04T21:06:49.235Z,10.43
2019-04-04T21:08:56.810Z,10.38
2019-04-04T21:11:04.505Z,10.39
2019-04-04T21:13:12.435Z,10.37
2019-04-04T21:15:20.845Z,10.28
2019-04-04T21:17:28.996Z,10.28
2019-04-04T21:19:36.451Z,10.28
2019-04-04T21:21:43.971Z,10.34
2019-04-04T21:23:51.489Z,10.24
2019-04-04T21:25:59.050Z,10.29
2019-04-04T21:28:06.804Z,10.26
2019-04-04T21:30:14.562Z,10.24
2019-04-04T21:32:22.087Z,10.15
2019-04-04T21:34:29.504Z,10.19
2019-04-04T21:36:36.902Z,10.07
2019-04-04T21:38:44.275Z,9.97
2019-04-04T21:40:51.661Z,9.96
2019-04-04T21:42:59.116Z,10.00
2019-04-04T21:45:08.258Z,9.91
2019-04-04T21:47:15.660Z,9.94
2019-04-04T21:49:23.102Z,9.91
2019-04-04T21:51:30.570Z,9.86
2019-04-04T21:53:38.067Z,9.75
2019-04-04T21:55:45.518Z,9.86
2019-04-04T21:57:53.068Z,9.84
2019-04-04T22:00:00.831Z,9.75
2019-04-04T22:02:08.743Z,9.65
2019-04-04T22:04:16.127Z,9.67
2019-04-04T22:06:23.537Z,9.62
2019-04-04T22:08:30.894Z,9.64
2019-04-04T22:10:38.426Z,9.64
2019-04-04T22:12:45.829Z,9.61
2019-04-04T22:14:53.234Z,9.66
2019-04-04T22:17:00.628Z,9.65
2019-04-04T22:19:08.193Z,9.54
2019-04-04T22:21:15.776Z,9.56
2019-04-04T22:23:23.371Z,9.53
2019-04-04T22:25:30.751Z,9.46
2019-04-04T22:27:38.293Z,9.52
2019-04-04T22:29:45.692Z,9.45
2019-04-04T22:31:53.041Z,9.53
2019-04-04T22:34:00.550Z,9.49
2019-04-04T22:36:07.911Z,9.51
2019-04-04T22:38:15.360Z,9.43
2019-04-04T22:40:22.719Z,9.32
2019-04-04T22:42:30.196Z,9.35
2019-04-04T22:44:37.681Z,9.32
2019-04-04T22:46:45.069Z,9.33
2019-04-04T22:48:52.546Z,9.23
2019-04-04T22:50:59.958Z,9.20
2019-04-04T22:53:07.494Z,9.19
2019-04-04T22:55:15.000Z,9.23
2019-04-04T22:57:22.445Z,9.20
2019-04-04T22:59:29.884Z,9.11
2019-04-04T23:01:37.282Z,9.13
2019-04-04T23:03:44.679Z,9.13
2019-04-04T23:05:52.041Z,9.10
2019-04-04T23:07:59.467Z,9.06
2019-04-04T23:10:08.002Z,9.07
2019-04-04T23:12:15.335Z,9.01
2019-04-04T23:14:22.692Z,8.99
2019-04-04T23:16:30.138Z,8.98
2019-04-04T23:18:37.496Z,8.92
2019-04-04T23:20:44.868Z,8.96
2019-04-04T23:22:53.334Z,8.99
2019-04-04T23:25:00.811Z,8.90
2019-04-04T23:27:08.263Z,8.87
2019-04-04T23:29:15.585Z,8.86
2019-04-04T23:31:22.946Z,8.80
2019-04-04T23:33:30.339Z,8.75
2019-04-04T23:35:37.722Z,8.77
2019-04-04T23:37:45.917Z,8.76
2019-04-04T23:39:53.378Z,8.70
2019-04-04T23:42:00.760Z,8.65
2019-04-04T23:44:08.144Z,8.72
2019-04-04T23:46:15.587Z,8.64
2019-04-04T23:48:22.947Z,8.57
2019-04-04T23:50:30.360Z,8.62
2019-04-04T23:52:37.759Z,8.55
2019-04-04T23:54:45.253Z,8.49
2019-04-04T23:56:52.715Z,8.52
2019-04-04T23:59:00.074Z,8.47
